map of DIY home
DIY - Airport
Location
City:  Diyarbakir, Diyarbakir, Turkey
ICAO:LTCC
IATA:DIY

Details
Type:Airport (Aerodrome, Airfield)
Use:Public/Civil, Military
Latitude:3753'38"N (37.893897)
Longitude:4012'04"E (40.201019)
Datum:WGS 1984
Elevation:2251 ft (686 m)
Variation:5.57E (WMM2015 magnetic declination)
0.08 annual change
Runways:1
Longest:11644 × 148 ft (3549 × 45 m), paved

Time
Time Zone:UTC+3
Local Time:

Weather
METAR:LTCC 231620Z 36006KT CAVOK 04/M12 Q1024 NOSIG RMK RWY16 34006KT
TAF:LTCC 221640Z 2218/2318 30009KT CAVOK

Related Locations
Nearby:
Farthest:GMR: 11370 mi / 18298 km
Mangareva [Totegegie], Gambier Islands, PF

Find:

   beyond  
but within

Other Information
Maps:
NOTAMs:
Links:
Sources:

  
flag of Turkey   

Airport Diagram

Airport diagram for DIY

Airport diagram (OBSOLETE) from NGA

Sectional Chart

Flight Planning
at skyvector.com

Satellite Image

Google Maps Satellite view

 

Copyright © 2004-2017 Karl L. Swartz. All rights reserved.
The Great Circle Mapper name and logo are trademarks of the Great Circle Mapper.
All other trademarks mentioned herein belong to their respective owners.
Please see credits for attibutions and further copyright information.

  Follow gcmap on Facebook Follow gcmap on Twitter Follow gcmap on Google+ GCmap on LinkedIn

hCard Microformat

Geo Microformat